sensor_id;sensor_type;location;lat;lon;timestamp;temperature;humidity
21282;DHT22;10800;53.096;18.328;2023-09-19T00:03:43;19.70;99.90
21282;DHT22;10800;53.096;18.328;2023-09-19T00:08:52;19.70;99.90
21282;DHT22;10800;53.096;18.328;2023-09-19T00:14:01;19.70;99.90
21282;DHT22;10800;53.096;18.328;2023-09-19T00:19:10;19.70;99.90
21282;DHT22;10800;53.096;18.328;2023-09-19T00:24:20;19.70;99.90
21282;DHT22;10800;53.096;18.328;2023-09-19T00:29:27;19.70;99.90
21282;DHT22;10800;53.096;18.328;2023-09-19T00:34:35;19.70;99.90
21282;DHT22;10800;53.096;18.328;2023-09-19T00:39:41;19.60;99.90
21282;DHT22;10800;53.096;18.328;2023-09-19T00:44:48;19.60;99.90
21282;DHT22;10800;53.096;18.328;2023-09-19T00:49:55;19.50;99.90
21282;DHT22;10800;53.096;18.328;2023-09-19T00:55:02;19.40;99.90
21282;DHT22;10800;53.096;18.328;2023-09-19T01:00:13;19.30;99.90
21282;DHT22;10800;53.096;18.328;2023-09-19T01:05:36;19.20;99.90
21282;DHT22;10800;53.096;18.328;2023-09-19T01:10:52;19.10;99.90
21282;DHT22;10800;53.096;18.328;2023-09-19T01:16:06;19.10;99.90
21282;DHT22;10800;53.096;18.328;2023-09-19T01:21:28;19.10;99.90
21282;DHT22;10800;53.096;18.328;2023-09-19T01:32:04;19.20;99.90
21282;DHT22;10800;53.096;18.328;2023-09-19T01:37:10;19.30;99.90
21282;DHT22;10800;53.096;18.328;2023-09-19T01:42:28;19.40;99.90
21282;DHT22;10800;53.096;18.328;2023-09-19T01:47:54;19.50;99.90
21282;DHT22;10800;53.096;18.328;2023-09-19T01:53:15;19.50;99.90
21282;DHT22;10800;53.096;18.328;2023-09-19T01:58:39;19.60;99.90
21282;DHT22;10800;53.096;18.328;2023-09-19T02:03:44;19.60;99.90
21282;DHT22;10800;53.096;18.328;2023-09-19T02:09:19;19.60;99.90
21282;DHT22;10800;53.096;18.328;2023-09-19T02:14:29;19.60;99.90
21282;DHT22;10800;53.096;18.328;2023-09-19T02:19:39;19.60;99.90
21282;DHT22;10800;53.096;18.328;2023-09-19T02:24:45;19.60;99.90
21282;DHT22;10800;53.096;18.328;2023-09-19T02:29:53;19.60;99.90
21282;DHT22;10800;53.096;18.328;2023-09-19T02:35:02;19.60;99.90
21282;DHT22;10800;53.096;18.328;2023-09-19T02:40:10;19.60;99.90
21282;DHT22;10800;53.096;18.328;2023-09-19T02:45:24;19.50;99.90
21282;DHT22;10800;53.096;18.328;2023-09-19T02:50:37;19.50;99.90
21282;DHT22;10800;53.096;18.328;2023-09-19T02:55:50;19.40;99.90
21282;DHT22;10800;53.096;18.328;2023-09-19T03:00:56;19.40;99.90
21282;DHT22;10800;53.096;18.328;2023-09-19T03:06:02;19.40;99.90
21282;DHT22;10800;53.096;18.328;2023-09-19T03:11:11;19.50;99.90
21282;DHT22;10800;53.096;18.328;2023-09-19T03:16:18;19.40;99.90
21282;DHT22;10800;53.096;18.328;2023-09-19T03:26:47;19.40;99.90
21282;DHT22;10800;53.096;18.328;2023-09-19T03:31:51;19.40;99.90
21282;DHT22;10800;53.096;18.328;2023-09-19T03:36:58;19.20;99.90
21282;DHT22;10800;53.096;18.328;2023-09-19T03:42:04;19.10;99.90
21282;DHT22;10800;53.096;18.328;2023-09-19T03:47:11;18.90;99.90
21282;DHT22;10800;53.096;18.328;2023-09-19T03:52:18;18.90;99.90
21282;DHT22;10800;53.096;18.328;2023-09-19T03:57:35;18.80;99.90
21282;DHT22;10800;53.096;18.328;2023-09-19T04:02:41;18.80;99.90
21282;DHT22;10800;53.096;18.328;2023-09-19T04:07:47;18.70;99.90
21282;DHT22;10800;53.096;18.328;2023-09-19T04:13:10;18.70;99.90
21282;DHT22;10800;53.096;18.328;2023-09-19T04:18:16;18.60;99.90
21282;DHT22;10800;53.096;18.328;2023-09-19T04:23:22;18.70;99.90
21282;DHT22;10800;53.096;18.328;2023-09-19T04:28:32;18.60;99.90
21282;DHT22;10800;53.096;18.328;2023-09-19T04:33:48;18.60;99.90
21282;DHT22;10800;53.096;18.328;2023-09-19T04:38:56;18.60;99.90
21282;DHT22;10800;53.096;18.328;2023-09-19T04:44:03;18.50;99.90
21282;DHT22;10800;53.096;18.328;2023-09-19T04:49:09;18.50;99.90
21282;DHT22;10800;53.096;18.328;2023-09-19T04:54:18;18.50;99.90
21282;DHT22;10800;53.096;18.328;2023-09-19T04:59:23;18.50;99.90
21282;DHT22;10800;53.096;18.328;2023-09-19T05:04:28;18.50;99.90
21282;DHT22;10800;53.096;18.328;2023-09-19T05:09:34;18.50;99.90
21282;DHT22;10800;53.096;18.328;2023-09-19T05:14:42;18.50;99.90
21282;DHT22;10800;53.096;18.328;2023-09-19T05:19:48;18.50;99.90
21282;DHT22;10800;53.096;18.328;2023-09-19T05:24:54;18.50;99.90
21282;DHT22;10800;53.096;18.328;2023-09-19T05:30:00;18.50;99.90
21282;DHT22;10800;53.096;18.328;2023-09-19T05:35:05;18.50;99.90
21282;DHT22;10800;53.096;18.328;2023-09-19T05:40:18;18.40;99.90
21282;DHT22;10800;53.096;18.328;2023-09-19T05:45:26;18.40;99.90
21282;DHT22;10800;53.096;18.328;2023-09-19T05:50:32;18.40;99.90
21282;DHT22;10800;53.096;18.328;2023-09-19T05:55:38;18.50;99.90
21282;DHT22;10800;53.096;18.328;2023-09-19T06:00:46;18.60;99.90
21282;DHT22;10800;53.096;18.328;2023-09-19T06:05:54;18.60;99.90
21282;DHT22;10800;53.096;18.328;2023-09-19T06:11:03;18.60;99.90
21282;DHT22;10800;53.096;18.328;2023-09-19T06:16:10;18.60;99.90
21282;DHT22;10800;53.096;18.328;2023-09-19T06:21:40;18.70;99.90
21282;DHT22;10800;53.096;18.328;2023-09-19T06:26:34;18.70;99.90
21282;DHT22;10800;53.096;18.328;2023-09-19T06:31:40;18.70;99.90
21282;DHT22;10800;53.096;18.328;2023-09-19T06:36:46;18.70;99.90
21282;DHT22;10800;53.096;18.328;2023-09-19T06:41:52;18.60;99.90
21282;DHT22;10800;53.096;18.328;2023-09-19T06:47:01;18.60;99.90
21282;DHT22;10800;53.096;18.328;2023-09-19T06:52:10;18.50;99.90
21282;DHT22;10800;53.096;18.328;2023-09-19T06:57:18;18.50;99.90
21282;DHT22;10800;53.096;18.328;2023-09-19T07:02:24;18.50;99.90
21282;DHT22;10800;53.096;18.328;2023-09-19T07:07:30;18.50;99.90
21282;DHT22;10800;53.096;18.328;2023-09-19T07:12:35;18.50;99.90
21282;DHT22;10800;53.096;18.328;2023-09-19T07:17:41;18.50;99.90
21282;DHT22;10800;53.096;18.328;2023-09-19T07:22:46;18.60;99.90
21282;DHT22;10800;53.096;18.328;2023-09-19T07:27:52;18.60;99.90
21282;DHT22;10800;53.096;18.328;2023-09-19T07:32:59;18.60;99.90
21282;DHT22;10800;53.096;18.328;2023-09-19T07:38:06;18.70;99.90
21282;DHT22;10800;53.096;18.328;2023-09-19T07:43:12;18.80;99.90
21282;DHT22;10800;53.096;18.328;2023-09-19T07:48:18;19.00;99.90
21282;DHT22;10800;53.096;18.328;2023-09-19T07:53:23;19.10;99.90
21282;DHT22;10800;53.096;18.328;2023-09-19T07:58:29;19.30;99.90
21282;DHT22;10800;53.096;18.328;2023-09-19T08:03:35;19.30;99.90
21282;DHT22;10800;53.096;18.328;2023-09-19T08:08:50;19.40;99.90
21282;DHT22;10800;53.096;18.328;2023-09-19T08:13:54;19.50;99.90
21282;DHT22;10800;53.096;18.328;2023-09-19T08:19:00;19.40;99.90
21282;DHT22;10800;53.096;18.328;2023-09-19T08:24:05;19.30;99.90
21282;DHT22;10800;53.096;18.328;2023-09-19T08:29:12;19.20;99.90
21282;DHT22;10800;53.096;18.328;2023-09-19T08:34:18;19.20;99.90
21282;DHT22;10800;53.096;18.328;2023-09-19T08:39:24;19.10;99.90
21282;DHT22;10800;53.096;18.328;2023-09-19T08:44:29;19.20;99.90
21282;DHT22;10800;53.096;18.328;2023-09-19T08:49:41;19.20;99.90
21282;DHT22;10800;53.096;18.328;2023-09-19T08:54:49;19.30;99.90
21282;DHT22;10800;53.096;18.328;2023-09-19T08:59:56;19.50;99.90
21282;DHT22;10800;53.096;18.328;2023-09-19T09:05:04;20.30;99.90
21282;DHT22;10800;53.096;18.328;2023-09-19T09:10:12;20.70;99.90
21282;DHT22;10800;53.096;18.328;2023-09-19T09:15:19;20.90;99.90
21282;DHT22;10800;53.096;18.328;2023-09-19T09:20:28;21.60;99.90
21282;DHT22;10800;53.096;18.328;2023-09-19T09:25:53;22.00;99.90
21282;DHT22;10800;53.096;18.328;2023-09-19T09:31:03;22.50;99.90
21282;DHT22;10800;53.096;18.328;2023-09-19T09:36:11;23.40;99.90
21282;DHT22;10800;53.096;18.328;2023-09-19T09:41:35;22.90;99.90
21282;DHT22;10800;53.096;18.328;2023-09-19T09:46:37;22.50;99.90
21282;DHT22;10800;53.096;18.328;2023-09-19T09:57:11;21.30;99.90
21282;DHT22;10800;53.096;18.328;2023-09-19T10:02:29;21.40;99.90
21282;DHT22;10800;53.096;18.328;2023-09-19T10:07:40;21.70;99.90
21282;DHT22;10800;53.096;18.328;2023-09-19T10:12:49;21.80;99.90
21282;DHT22;10800;53.096;18.328;2023-09-19T10:17:56;21.70;99.90
21282;DHT22;10800;53.096;18.328;2023-09-19T10:23:07;21.70;99.90
21282;DHT22;10800;53.096;18.328;2023-09-19T10:28:19;22.00;99.90
21282;DHT22;10800;53.096;18.328;2023-09-19T10:33:29;22.30;99.90
21282;DHT22;10800;53.096;18.328;2023-09-19T10:38:38;22.60;99.90
21282;DHT22;10800;53.096;18.328;2023-09-19T10:43:47;22.60;99.90
21282;DHT22;10800;53.096;18.328;2023-09-19T10:48:53;22.20;99.90
21282;DHT22;10800;53.096;18.328;2023-09-19T10:54:06;22.00;99.90
21282;DHT22;10800;53.096;18.328;2023-09-19T10:59:18;21.90;99.90
21282;DHT22;10800;53.096;18.328;2023-09-19T11:04:33;22.10;99.90
21282;DHT22;10800;53.096;18.328;2023-09-19T11:09:53;22.40;99.90
21282;DHT22;10800;53.096;18.328;2023-09-19T11:15:01;22.60;99.90
21282;DHT22;10800;53.096;18.328;2023-09-19T11:30:48;22.70;98.40
21282;DHT22;10800;53.096;18.328;2023-09-19T11:46:54;23.20;96.00
21282;DHT22;10800;53.096;18.328;2023-09-19T11:52:02;23.60;93.00
21282;DHT22;10800;53.096;18.328;2023-09-19T11:57:10;24.10;92.80
21282;DHT22;10800;53.096;18.328;2023-09-19T12:02:31;24.00;82.60
21282;DHT22;10800;53.096;18.328;2023-09-19T12:07:25;23.90;84.00
21282;DHT22;10800;53.096;18.328;2023-09-19T12:12:31;23.90;84.80
21282;DHT22;10800;53.096;18.328;2023-09-19T12:17:39;23.50;85.40
21282;DHT22;10800;53.096;18.328;2023-09-19T12:22:51;23.10;89.40
21282;DHT22;10800;53.096;18.328;2023-09-19T12:27:58;23.60;85.90
21282;DHT22;10800;53.096;18.328;2023-09-19T12:33:06;24.20;87.10
21282;DHT22;10800;53.096;18.328;2023-09-19T12:38:27;24.10;83.30
21282;DHT22;10800;53.096;18.328;2023-09-19T12:43:32;23.80;84.70
21282;DHT22;10800;53.096;18.328;2023-09-19T12:48:41;23.40;84.10
21282;DHT22;10800;53.096;18.328;2023-09-19T12:53:56;23.40;82.40
21282;DHT22;10800;53.096;18.328;2023-09-19T12:59:07;23.80;77.40
21282;DHT22;10800;53.096;18.328;2023-09-19T13:04:19;23.90;75.20
21282;DHT22;10800;53.096;18.328;2023-09-19T13:09:25;23.50;74.30
21282;DHT22;10800;53.096;18.328;2023-09-19T13:14:32;23.10;78.00
21282;DHT22;10800;53.096;18.328;2023-09-19T13:19:44;23.40;73.90
21282;DHT22;10800;53.096;18.328;2023-09-19T13:24:58;23.10;73.20
21282;DHT22;10800;53.096;18.328;2023-09-19T13:30:05;23.20;70.80
21282;DHT22;10800;53.096;18.328;2023-09-19T13:35:11;23.40;66.60
21282;DHT22;10800;53.096;18.328;2023-09-19T13:40:17;23.50;65.60
21282;DHT22;10800;53.096;18.328;2023-09-19T13:45:24;23.50;67.80
21282;DHT22;10800;53.096;18.328;2023-09-19T13:50:34;23.40;69.10
21282;DHT22;10800;53.096;18.328;2023-09-19T13:55:41;23.20;67.70
21282;DHT22;10800;53.096;18.328;2023-09-19T14:00:50;23.20;68.50
21282;DHT22;10800;53.096;18.328;2023-09-19T14:06:04;23.10;68.20
21282;DHT22;10800;53.096;18.328;2023-09-19T14:11:12;23.00;68.90
21282;DHT22;10800;53.096;18.328;2023-09-19T14:16:20;22.90;70.10
21282;DHT22;10800;53.096;18.328;2023-09-19T14:21:28;22.60;69.90
21282;DHT22;10800;53.096;18.328;2023-09-19T14:26:39;22.40;69.70
21282;DHT22;10800;53.096;18.328;2023-09-19T14:31:46;22.30;71.60
21282;DHT22;10800;53.096;18.328;2023-09-19T14:36:56;22.40;70.10
21282;DHT22;10800;53.096;18.328;2023-09-19T14:42:07;22.20;72.50
21282;DHT22;10800;53.096;18.328;2023-09-19T14:47:15;22.10;73.40
21282;DHT22;10800;53.096;18.328;2023-09-19T14:52:27;22.10;71.90
21282;DHT22;10800;53.096;18.328;2023-09-19T14:57:34;22.00;71.90
21282;DHT22;10800;53.096;18.328;2023-09-19T15:02:42;21.80;72.80
21282;DHT22;10800;53.096;18.328;2023-09-19T15:07:50;21.70;74.70
21282;DHT22;10800;53.096;18.328;2023-09-19T15:12:55;21.70;73.50
21282;DHT22;10800;53.096;18.328;2023-09-19T15:18:02;21.50;75.10
21282;DHT22;10800;53.096;18.328;2023-09-19T15:23:08;21.40;76.10
21282;DHT22;10800;53.096;18.328;2023-09-19T15:28:14;21.10;75.90
21282;DHT22;10800;53.096;18.328;2023-09-19T15:33:19;20.90;76.30
21282;DHT22;10800;53.096;18.328;2023-09-19T15:38:24;20.80;77.60
21282;DHT22;10800;53.096;18.328;2023-09-19T15:43:31;20.70;80.20
21282;DHT22;10800;53.096;18.328;2023-09-19T15:48:38;20.50;81.20
21282;DHT22;10800;53.096;18.328;2023-09-19T15:53:46;20.40;80.40
21282;DHT22;10800;53.096;18.328;2023-09-19T15:58:55;20.30;81.10
21282;DHT22;10800;53.096;18.328;2023-09-19T16:04:01;20.20;81.00
21282;DHT22;10800;53.096;18.328;2023-09-19T16:09:08;20.10;82.70
21282;DHT22;10800;53.096;18.328;2023-09-19T16:14:15;19.90;83.30
21282;DHT22;10800;53.096;18.328;2023-09-19T16:19:22;19.70;84.70
21282;DHT22;10800;53.096;18.328;2023-09-19T16:24:27;19.50;86.00
21282;DHT22;10800;53.096;18.328;2023-09-19T16:29:37;19.30;88.40
21282;DHT22;10800;53.096;18.328;2023-09-19T16:34:44;19.00;89.70
21282;DHT22;10800;53.096;18.328;2023-09-19T16:39:50;18.80;90.60
21282;DHT22;10800;53.096;18.328;2023-09-19T16:44:58;18.70;90.90
21282;DHT22;10800;53.096;18.328;2023-09-19T16:50:11;18.50;91.50
21282;DHT22;10800;53.096;18.328;2023-09-19T16:55:26;18.40;91.60
21282;DHT22;10800;53.096;18.328;2023-09-19T17:00:40;18.20;92.40
21282;DHT22;10800;53.096;18.328;2023-09-19T17:05:48;18.10;93.00
21282;DHT22;10800;53.096;18.328;2023-09-19T17:11:08;18.00;93.50
21282;DHT22;10800;53.096;18.328;2023-09-19T17:16:17;17.90;94.10
21282;DHT22;10800;53.096;18.328;2023-09-19T17:21:30;17.70;94.90
21282;DHT22;10800;53.096;18.328;2023-09-19T17:26:39;17.60;96.00
21282;DHT22;10800;53.096;18.328;2023-09-19T17:31:47;17.40;96.40
21282;DHT22;10800;53.096;18.328;2023-09-19T17:36:52;17.30;97.20
21282;DHT22;10800;53.096;18.328;2023-09-19T17:42:00;17.20;98.00
21282;DHT22;10800;53.096;18.328;2023-09-19T17:47:07;17.00;99.20
21282;DHT22;10800;53.096;18.328;2023-09-19T17:52:26;16.90;99.90
21282;DHT22;10800;53.096;18.328;2023-09-19T17:57:31;16.90;99.90
21282;DHT22;10800;53.096;18.328;2023-09-19T18:02:39;16.70;99.90
21282;DHT22;10800;53.096;18.328;2023-09-19T18:07:50;16.60;99.90
21282;DHT22;10800;53.096;18.328;2023-09-19T18:13:05;16.50;99.90
21282;DHT22;10800;53.096;18.328;2023-09-19T18:18:12;16.30;99.90
21282;DHT22;10800;53.096;18.328;2023-09-19T18:23:28;16.30;99.90
21282;DHT22;10800;53.096;18.328;2023-09-19T18:28:38;16.20;99.90
21282;DHT22;10800;53.096;18.328;2023-09-19T18:33:46;16.20;99.90
21282;DHT22;10800;53.096;18.328;2023-09-19T18:38:53;16.10;99.90
21282;DHT22;10800;53.096;18.328;2023-09-19T18:44:00;16.10;99.90
21282;DHT22;10800;53.096;18.328;2023-09-19T18:49:05;16.00;99.90
21282;DHT22;10800;53.096;18.328;2023-09-19T18:54:12;15.90;99.90
21282;DHT22;10800;53.096;18.328;2023-09-19T18:59:18;15.70;99.90
21282;DHT22;10800;53.096;18.328;2023-09-19T19:04:25;15.60;99.90
21282;DHT22;10800;53.096;18.328;2023-09-19T19:09:31;15.30;99.90
21282;DHT22;10800;53.096;18.328;2023-09-19T19:14:37;15.20;99.90
21282;DHT22;10800;53.096;18.328;2023-09-19T19:19:43;15.10;99.90
21282;DHT22;10800;53.096;18.328;2023-09-19T19:25:00;15.00;99.90
21282;DHT22;10800;53.096;18.328;2023-09-19T19:30:21;14.90;99.90
21282;DHT22;10800;53.096;18.328;2023-09-19T19:35:31;14.80;99.90
21282;DHT22;10800;53.096;18.328;2023-09-19T19:40:37;14.70;99.90
21282;DHT22;10800;53.096;18.328;2023-09-19T19:45:52;14.60;99.90
21282;DHT22;10800;53.096;18.328;2023-09-19T19:51:00;14.50;99.90
21282;DHT22;10800;53.096;18.328;2023-09-19T19:56:11;14.30;99.90
21282;DHT22;10800;53.096;18.328;2023-09-19T20:01:21;14.30;99.90
21282;DHT22;10800;53.096;18.328;2023-09-19T20:06:32;14.20;99.90
21282;DHT22;10800;53.096;18.328;2023-09-19T20:11:47;14.10;99.90
21282;DHT22;10800;53.096;18.328;2023-09-19T20:16:53;14.00;99.90
21282;DHT22;10800;53.096;18.328;2023-09-19T20:22:01;13.90;99.90
21282;DHT22;10800;53.096;18.328;2023-09-19T20:27:08;13.80;99.90
21282;DHT22;10800;53.096;18.328;2023-09-19T20:32:21;13.70;99.90
21282;DHT22;10800;53.096;18.328;2023-09-19T20:37:29;13.60;99.90
21282;DHT22;10800;53.096;18.328;2023-09-19T20:42:34;13.60;99.90
21282;DHT22;10800;53.096;18.328;2023-09-19T20:47:41;13.40;99.90
21282;DHT22;10800;53.096;18.328;2023-09-19T20:52:47;13.30;99.90
21282;DHT22;10800;53.096;18.328;2023-09-19T20:57:53;13.20;99.90
21282;DHT22;10800;53.096;18.328;2023-09-19T21:02:58;13.20;99.90
21282;DHT22;10800;53.096;18.328;2023-09-19T21:08:04;13.10;99.90
21282;DHT22;10800;53.096;18.328;2023-09-19T21:13:10;12.90;99.90
21282;DHT22;10800;53.096;18.328;2023-09-19T21:18:16;12.90;99.90
21282;DHT22;10800;53.096;18.328;2023-09-19T21:23:21;12.90;99.90
21282;DHT22;10800;53.096;18.328;2023-09-19T21:28:27;12.80;99.90
21282;DHT22;10800;53.096;18.328;2023-09-19T21:33:34;12.80;99.90
21282;DHT22;10800;53.096;18.328;2023-09-19T21:38:43;12.70;99.90
21282;DHT22;10800;53.096;18.328;2023-09-19T21:43:48;12.60;99.90
21282;DHT22;10800;53.096;18.328;2023-09-19T21:48:56;12.50;99.90
21282;DHT22;10800;53.096;18.328;2023-09-19T21:54:04;12.50;99.90
21282;DHT22;10800;53.096;18.328;2023-09-19T21:59:10;12.40;99.90
21282;DHT22;10800;53.096;18.328;2023-09-19T22:04:16;12.40;99.90
21282;DHT22;10800;53.096;18.328;2023-09-19T22:09:22;12.40;99.90
21282;DHT22;10800;53.096;18.328;2023-09-19T22:14:27;12.30;99.90
21282;DHT22;10800;53.096;18.328;2023-09-19T22:19:36;12.30;99.90
21282;DHT22;10800;53.096;18.328;2023-09-19T22:24:43;12.30;99.90
21282;DHT22;10800;53.096;18.328;2023-09-19T22:29:53;12.30;99.90
21282;DHT22;10800;53.096;18.328;2023-09-19T22:35:04;12.20;99.90
21282;DHT22;10800;53.096;18.328;2023-09-19T22:40:11;12.10;99.90
21282;DHT22;10800;53.096;18.328;2023-09-19T22:45:20;12.00;99.90
21282;DHT22;10800;53.096;18.328;2023-09-19T22:50:27;11.90;99.90
21282;DHT22;10800;53.096;18.328;2023-09-19T22:55:37;11.90;99.90
21282;DHT22;10800;53.096;18.328;2023-09-19T23:00:43;11.90;99.90
21282;DHT22;10800;53.096;18.328;2023-09-19T23:05:50;11.80;99.90
21282;DHT22;10800;53.096;18.328;2023-09-19T23:11:01;11.70;99.90
21282;DHT22;10800;53.096;18.328;2023-09-19T23:16:12;11.70;99.90
21282;DHT22;10800;53.096;18.328;2023-09-19T23:21:21;11.80;99.90
21282;DHT22;10800;53.096;18.328;2023-09-19T23:26:28;11.80;99.90
21282;DHT22;10800;53.096;18.328;2023-09-19T23:31:35;11.80;99.90
21282;DHT22;10800;53.096;18.328;2023-09-19T23:36:42;11.70;99.90
21282;DHT22;10800;53.096;18.328;2023-09-19T23:41:55;11.70;99.90
21282;DHT22;10800;53.096;18.328;2023-09-19T23:47:03;11.70;99.90
21282;DHT22;10800;53.096;18.328;2023-09-19T23:52:11;11.60;99.90
21282;DHT22;10800;53.096;18.328;2023-09-19T23:57:17;11.50;99.90
